Airfield :
LOGIN :

Register | Disclaimer

   EN    FR    IT 

 










Legend :    VFR   Marginal VFR   IFR   Intensive IFR   Very Intensive IFR
Visi :
Ceiling :
>= 8 km
>= 3000ft
5 to 8 km
1000 to 3000 ft
1500m to 5 km
500 to 1000 ft
800 to 1500m
200 to 500 ft
< 800m
< 200 ft
Symbols :   Thunderstorms  Fog  Heavy snow  Heavy precipitations  Wind > 20 kt
SIGMETs :     Misc.  Thunderstorms  Icing  Turbulence  Mountain Waves  Volcanic Ashes






- Airport Elevation : 157 ft
- IATA code : SXF


EDDB - Berlin Schönefeld

CURRENT METAR :
  • 101850Z 11005KT CAVOK 07/05 Q1016 NOSIG

EXPIRED METARs :
  • 101820Z 11007KT 9999 FEW038 07/05 Q1016 NOSIG
  • 101750Z 12006KT 9999 FEW019 BKN038 08/05 Q1016 NOSIG
  • 101720Z 11006KT 9999 SCT018 BKN034 08/04 Q1016 NOSIG
  • 101650Z 11006KT 9999 SCT023 BKN035 08/04 Q1016 NOSIG
  • 101620Z 11007KT 9999 SCT023 BKN035 08/04 Q1016 NOSIG

TAF TAF EDDB
Valid from the 10 at 18:00 until the 11 at 18:00 UTC


101700Z 1018/1118 10008KT 9999 BKN025
TEMPO 1021/1024 BKN012
PROB40
TEMPO 1021/1104 4500 -RADZ BKN007
BECMG 1104/1107 17008KT



MET'MAP, your aeronautical weather chart ! - Copyright ORBIFLY December 2007 - Disclaimer

ORBIFLY MET'MAP TEAM :

Programming & Development : Alexandra Zaïnal
Concept & original design : Baudouin d'Aumeries
Assistance for programming : Marc-Olivier Méhu
Technical & hardware support : Manuel Goepfert

Contact : metmap@orbifly.com




SOURCES & CREDITS :

   NOAA